Time;durP1;ratioP1;P1;durP2;ratioP2;P2;SDS_P1;SDS_P2;PMS_P1;PMS_P2;Temp;Humidity;BMP_temperature;BMP_pressure;BME280_temperature;BME280_humidity;BME280_pressure;Samples;Min_cycle;Max_cycle;Signal;HPM_P1;HPM_P2
2022/01/27 00:01:06;;;;;;;;;;;;;;;11.70;74.16;101812.97;7371163;19;19958;-67
2022/01/27 00:03:59;;;;;;;;;;;;;;;11.69;73.82;101813.00;7368033;19;24609;-67
2022/01/27 00:06:25;;;;;;;;;;;;;;;11.69;73.91;101806.00;7369135;19;19929;-67
2022/01/27 00:08:56;;;;;;;;;;;;;;;11.70;73.91;101810.34;7362263;19;19923;-66
2022/01/27 00:11:21;;;;;;;;;;;;;;;11.70;74.24;101810.34;7360573;19;19927;-67
2022/01/27 00:13:49;;;;;;;;;;;;;;;11.70;73.97;101810.34;7363460;19;19919;-67
2022/01/27 00:16:19;;;;;;;;;;;;;;;11.72;73.97;101804.25;7360804;19;20620;-67
2022/01/27 00:18:46;;;;;;;;;;;;;;;11.73;74.27;101819.06;7359052;19;19978;-67
2022/01/27 00:21:12;;;;;;;;;;;;;;;11.73;74.06;101814.69;7355192;19;19915;-66
2022/01/27 00:23:37;;;;;;;;;;;;;;;11.74;74.66;101818.19;7358442;19;19919;-67
2022/01/27 00:26:04;;;;;;;;;;;;;;;11.74;74.39;101826.03;7363699;19;19930;-67
2022/01/27 00:28:29;;;;;;;;;;;;;;;11.75;74.51;101830.38;7357940;19;19935;-66
2022/01/27 00:30:55;;;;;;;;;;;;;;;11.76;74.81;101824.25;7361745;19;19923;-66
2022/01/27 00:33:20;;;;;;;;;;;;;;;11.77;74.53;101821.66;7362364;19;19984;-67
2022/01/27 00:35:45;;;;;;;;;;;;;;;11.78;74.64;101814.66;7359933;19;19982;-67
2022/01/27 00:38:11;;;;;;;;;;;;;;;11.79;74.47;101808.53;7360611;19;19925;-67
2022/01/27 00:40:36;;;;;;;;;;;;;;;11.80;74.67;101812.88;7365606;19;19986;-67
2022/01/27 00:43:02;;;;;;;;;;;;;;;11.80;74.74;101816.34;7359304;19;19946;-67
2022/01/27 00:45:30;;;;;;;;;;;;;;;11.83;74.55;101820.75;7365502;19;20003;-66
2022/01/27 00:47:55;;;;;;;;;;;;;;;11.85;74.93;101824.19;7362433;19;19907;-67
2022/01/27 00:50:20;;;;;;;;;;;;;;;11.85;74.35;101829.44;7372715;19;19919;-66
2022/01/27 00:52:53;;;;;;;;;;;;;;;11.88;75.00;101829.41;7371239;19;19922;-66
2022/01/27 00:55:18;;;;;;;;;;;;;;;11.89;74.66;101836.38;7364572;19;19914;-66
2022/01/27 01:00:21;;;;;;;;;;;;;;;11.92;74.72;101841.59;7367038;19;19922;-67
2022/01/27 01:05:46;;;;;;;;;;;;;;;11.93;74.94;101838.09;7359977;19;19926;-66
2022/01/27 01:09:17;;;;;;;;;;;;;;;11.94;75.04;101845.06;7260054;19;2004467;-65
2022/01/27 01:16:32;;;;;;;;;;;;;;;11.97;75.09;101829.34;7364179;19;19931;-66
2022/01/27 01:19:08;;;;;;;;;;;;;;;12.00;75.05;101839.75;7353327;19;19941;-66
2022/01/27 01:30:08;;;;;;;;;;;;;;;12.04;75.36;101840.59;7361489;19;20013;-66
2022/01/27 01:32:48;;;;;;;;;;;;;;;12.05;75.41;101837.09;7364520;19;19918;-67
2022/01/27 01:35:13;;;;;;;;;;;;;;;12.06;75.35;101836.19;7354901;19;19910;-66
2022/01/27 01:37:41;;;;;;;;;;;;;;;12.07;75.38;101830.97;7361075;19;19918;-66
2022/01/27 01:40:08;;;;;;;;;;;;;;;12.03;75.55;101823.16;7368696;19;19925;-67
2022/01/27 01:42:33;;;;;;;;;;;;;;;12.09;75.49;101830.94;7372589;19;19915;-66
2022/01/27 01:45:07;;;;;;;;;;;;;;;12.09;75.11;101837.03;7368942;19;19911;-65
2022/01/27 01:47:32;;;;;;;;;;;;;;;12.10;75.51;101830.91;7359022;19;19983;-65
2022/01/27 01:49:57;;;;;;;;;;;;;;;12.10;75.53;101836.16;7364267;19;19914;-65
2022/01/27 01:52:23;;;;;;;;;;;;;;;12.11;75.26;101837.88;7355342;19;19936;-66
2022/01/27 01:54:48;;;;;;;;;;;;;;;12.12;75.40;101834.41;7360939;19;19914;-65
2022/01/27 01:57:14;;;;;;;;;;;;;;;12.13;75.68;101825.66;7359124;19;20039;-65
2022/01/27 01:59:39;;;;;;;;;;;;;;;12.14;75.91;101840.47;7359269;19;19922;-65
2022/01/27 02:02:05;;;;;;;;;;;;;;;12.14;75.37;101840.47;7363931;19;19927;-65
2022/01/27 02:04:30;;;;;;;;;;;;;;;12.14;75.56;101848.34;7360938;19;19925;-65
2022/01/27 02:06:59;;;;;;;;;;;;;;;12.15;75.63;101844.81;7363138;19;20277;-66
2022/01/27 02:20:03;;;;;;;;;;;;;;;12.17;75.95;101845.69;7366523;19;19929;-65
2022/01/27 02:22:28;;;;;;;;;;;;;;;12.18;75.62;101843.94;7367600;19;20389;-65
2022/01/27 02:24:54;;;;;;;;;;;;;;;12.17;75.62;101850.94;7367969;19;19937;-65
2022/01/27 02:27:20;;;;;;;;;;;;;;;12.17;75.66;101848.31;7368060;19;19925;-66
2022/01/27 02:29:45;;;;;;;;;;;;;;;12.18;75.79;101849.19;7371198;19;19930;-66
2022/01/27 02:32:12;;;;;;;;;;;;;;;12.18;75.59;101849.19;7368284;19;20268;-65
2022/01/27 02:34:37;;;;;;;;;;;;;;;12.17;75.78;101843.06;7366617;19;19919;-66
2022/01/27 02:37:03;;;;;;;;;;;;;;;12.18;75.84;101860.50;7366711;19;19930;-66
2022/01/27 02:39:28;;;;;;;;;;;;;;;12.18;75.57;101851.78;7373077;19;19941;-67
2022/01/27 02:42:16;;;;;;;;;;;;;;;12.19;75.52;101851.75;7374425;19;20460;-66
2022/01/27 02:44:47;;;;;;;;;;;;;;;12.20;75.51;101847.41;7367475;19;19935;-65
2022/01/27 02:47:13;;;;;;;;;;;;;;;12.20;75.70;101858.72;7369529;19;19954;-65
2022/01/27 02:49:38;;;;;;;;;;;;;;;12.21;75.59;101854.34;7366135;19;19922;-66
2022/01/27 02:52:04;;;;;;;;;;;;;;;12.21;75.58;101849.13;7369012;19;19915;-66
2022/01/27 02:54:29;;;;;;;;;;;;;;;12.20;75.56;101850.88;7367577;19;19925;-66
2022/01/27 02:56:54;;;;;;;;;;;;;;;12.22;76.02;101845.66;7358170;19;19911;-66
2022/01/27 02:59:20;;;;;;;;;;;;;;;12.23;75.72;101846.50;7357030;19;20629;-65
2022/01/27 03:01:47;;;;;;;;;;;;;;;12.23;75.79;101844.75;7369022;19;19923;-66
2022/01/27 03:04:13;;;;;;;;;;;;;;;12.23;75.89;101846.50;7358517;19;20320;-65
2022/01/27 03:06:38;;;;;;;;;;;;;;;12.24;76.00;101843.88;7366810;19;19974;-66
2022/01/27 03:09:04;;;;;;;;;;;;;;;12.25;75.83;101844.72;7364613;19;19978;-66
2022/01/27 03:11:48;;;;;;;;;;;;;;;12.25;75.52;101845.59;7366573;19;19982;-66
2022/01/27 03:14:14;;;;;;;;;;;;;;;12.26;75.46;101836.84;7363888;19;19936;-67
2022/01/27 03:16:40;;;;;;;;;;;;;;;12.27;75.88;101845.59;7293762;19;19926;-66
2022/01/27 03:19:05;;;;;;;;;;;;;;;12.29;75.85;101830.72;1131955;19;10001965;-65
2022/01/27 03:21:30;;;;;;;;;;;;;;;12.29;75.61;101830.72;7374453;19;20006;-65
2022/01/27 03:23:56;;;;;;;;;;;;;;;12.31;75.49;101832.41;7372576;19;19927;-64
2022/01/27 03:26:22;;;;;;;;;;;;;;;12.32;75.69;101835.94;7374449;19;19930;-65
2022/01/27 03:28:48;;;;;;;;;;;;;;;12.35;75.50;101841.13;7370206;19;19931;-64
2022/01/27 03:31:13;;;;;;;;;;;;;;;12.36;75.90;101853.31;7369663;19;19925;-65
2022/01/27 03:33:39;;;;;;;;;;;;;;;12.35;75.63;101844.59;7374707;19;19923;-65
2022/01/27 03:36:04;;;;;;;;;;;;;;;12.38;75.38;101848.94;7373080;19;20272;-66
2022/01/27 03:38:30;;;;;;;;;;;;;;;12.38;75.46;101843.72;7373131;19;19922;-66
2022/01/27 03:40:55;;;;;;;;;;;;;;;12.37;75.54;101855.94;7370599;19;19982;-66
2022/01/27 03:43:20;;;;;;;;;;;;;;;12.38;75.65;101860.28;7359362;19;19910;-65
2022/01/27 03:45:46;;;;;;;;;;;;;;;12.37;75.05;101855.09;7371425;19;19971;-65
2022/01/27 03:48:11;;;;;;;;;;;;;;;12.34;75.49;101855.97;7371197;19;19919;-66
2022/01/27 03:50:36;;;;;;;;;;;;;;;12.34;75.33;101855.09;7370154;19;19914;-66
2022/01/27 03:53:02;;;;;;;;;;;;;;;12.32;75.33;101849.91;7371192;19;19929;-66
2022/01/27 03:55:28;;;;;;;;;;;;;;;12.31;75.39;101844.66;7370091;19;19919;-65
2022/01/27 03:57:53;;;;;;;;;;;;;;;12.29;75.25;101849.06;7353450;19;20379;-65
2022/01/27 04:00:19;;;;;;;;;;;;;;;12.26;75.01;101849.94;7374418;19;19922;-65
2022/01/27 04:03:19;;;;;;;;;;;;;;;12.23;74.75;101846.50;7370851;19;19919;-66
2022/01/27 04:05:39;;;;;;;;;;;;;;;12.19;74.70;101856.13;7257931;19;2004577;-65
2022/01/27 04:08:05;;;;;;;;;;;;;;;12.15;74.88;101851.81;7365279;19;19937;-67
2022/01/27 04:10:30;;;;;;;;;;;;;;;12.09;74.91;101847.50;7365487;19;19935;-65
2022/01/27 04:12:56;;;;;;;;;;;;;;;12.05;74.75;101848.44;7373843;19;19927;-65
2022/01/27 04:15:21;;;;;;;;;;;;;;;12.01;74.48;101849.34;7362751;19;20406;-66
2022/01/27 04:17:47;;;;;;;;;;;;;;;11.95;74.57;101852.88;7358790;19;19918;-65
2022/01/27 04:20:12;;;;;;;;;;;;;;;11.90;74.85;101854.69;7363826;19;20267;-65
2022/01/27 04:22:37;;;;;;;;;;;;;;;11.86;74.82;101862.56;7360052;19;19934;-66
2022/01/27 04:25:03;;;;;;;;;;;;;;;11.81;74.83;101861.72;7366484;19;19989;-65
2022/01/27 04:27:32;;;;;;;;;;;;;;;11.75;74.60;101865.25;7366099;19;19915;-65
2022/01/27 04:29:58;;;;;;;;;;;;;;;11.72;74.48;101874.91;7363138;19;20260;-65
2022/01/27 04:32:30;;;;;;;;;;;;;;;11.67;74.82;101875.81;7368765;19;19915;-65
2022/01/27 04:35:00;;;;;;;;;;;;;;;11.66;74.85;101881.06;7362312;19;19911;-65
2022/01/27 04:37:27;;;;;;;;;;;;;;;11.66;74.81;101881.06;7364671;19;19968;-65
2022/01/27 04:40:02;;;;;;;;;;;;;;;11.65;75.10;101882.78;7367712;19;19915;-65
2022/01/27 04:42:41;;;;;;;;;;;;;;;11.67;75.32;101883.66;7362245;19;20339;-66
2022/01/27 04:45:08;;;;;;;;;;;;;;;11.69;74.95;101881.88;7362601;19;19923;-66
2022/01/27 04:47:40;;;;;;;;;;;;;;;11.71;74.89;101881.91;7363599;19;19989;-66
2022/01/27 04:50:05;;;;;;;;;;;;;;;11.73;75.25;101887.09;7370277;19;19959;-65
2022/01/27 04:52:35;;;;;;;;;;;;;;;11.73;75.28;101887.09;7372938;19;19922;-66
2022/01/27 04:55:07;;;;;;;;;;;;;;;11.72;74.74;101885.38;7368287;19;19926;-65
2022/01/27 04:57:33;;;;;;;;;;;;;;;11.70;74.97;101891.47;7371336;19;19919;-65
2022/01/27 04:59:59;;;;;;;;;;;;;;;11.68;74.96;101901.09;7367771;19;19954;-65
2022/01/27 05:02:38;;;;;;;;;;;;;;;11.69;74.79;101896.72;7366697;19;19927;-65
2022/01/27 05:05:03;;;;;;;;;;;;;;;11.70;75.04;101903.69;7353395;19;19931;-66
2022/01/27 05:07:29;;;;;;;;;;;;;;;11.69;74.98;101905.44;7364656;19;19919;-64
2022/01/27 05:09:59;;;;;;;;;;;;;;;11.69;75.05;101907.19;7352876;19;19915;-65
2022/01/27 05:12:49;;;;;;;;;;;;;;;11.68;74.95;101914.16;7362920;19;19923;-64
2022/01/27 05:15:24;;;;;;;;;;;;;;;11.62;74.47;101901.13;3542363;19;10001941;-64
2022/01/27 05:17:51;;;;;;;;;;;;;;;11.66;74.75;101915.94;5534861;19;10001426;-66
2022/01/27 05:20:16;;;;;;;;;;;;;;;11.64;74.52;101920.28;7362624;19;19929;-65
2022/01/27 05:22:42;;;;;;;;;;;;;;;11.63;74.50;101913.34;7361460;19;19915;-65
2022/01/27 05:25:07;;;;;;;;;;;;;;;11.61;74.57;101928.19;7362308;19;19972;-65
2022/01/27 05:27:32;;;;;;;;;;;;;;;11.59;74.62;101922.09;7362119;19;19914;-65
2022/01/27 05:29:57;;;;;;;;;;;;;;;11.57;74.38;101923.84;7364672;19;19950;-65
2022/01/27 05:32:23;;;;;;;;;;;;;;;11.56;74.64;101919.50;7363891;19;20344;-66
2022/01/27 05:34:48;;;;;;;;;;;;;;;11.54;74.61;101920.38;7361905;19;19919;-65
2022/01/27 05:37:13;;;;;;;;;;;;;;;11.52;74.42;101917.78;7364290;19;19921;-65
2022/01/27 05:39:39;;;;;;;;;;;;;;;11.49;74.33;101919.53;7370059;19;19915;-64
2022/01/27 05:42:04;;;;;;;;;;;;;;;11.44;74.18;101923.06;7363765;19;19927;-65
2022/01/27 05:44:31;;;;;;;;;;;;;;;11.40;74.18;101920.47;7363543;19;19919;-66
2022/01/27 05:46:56;;;;;;;;;;;;;;;11.36;74.19;101929.22;7361815;19;19911;-66
2022/01/27 05:49:22;;;;;;;;;;;;;;;11.30;74.32;101930.13;7359995;19;19915;-66
2022/01/27 05:51:47;;;;;;;;;;;;;;;11.26;74.35;101938.00;7366561;19;19925;-64
2022/01/27 05:54:12;;;;;;;;;;;;;;;11.21;74.50;101945.00;7365784;19;19918;-66
2022/01/27 05:56:38;;;;;;;;;;;;;;;11.16;74.53;101955.50;7366244;19;19919;-65
2022/01/27 05:59:03;;;;;;;;;;;;;;;11.09;74.53;101956.38;7368040;19;19995;-65
2022/01/27 06:01:28;;;;;;;;;;;;;;;11.04;74.34;101956.41;7369062;19;20523;-65
2022/01/27 06:03:54;;;;;;;;;;;;;;;11.01;74.51;101959.06;7370336;19;19922;-65
2022/01/27 06:06:19;;;;;;;;;;;;;;;10.97;74.79;101957.31;7368649;19;19915;-66
2022/01/27 06:08:45;;;;;;;;;;;;;;;10.97;74.52;101956.44;7367459;19;19919;-67
2022/01/27 06:11:10;;;;;;;;;;;;;;;10.97;74.75;101953.84;7367681;19;19923;-65
2022/01/27 06:13:36;;;;;;;;;;;;;;;10.98;75.28;101948.59;7366602;19;19923;-65
2022/01/27 06:16:08;;;;;;;;;;;;;;;11.00;74.84;101957.31;7369536;19;19923;-65
2022/01/27 06:18:33;;;;;;;;;;;;;;;11.00;74.91;101962.53;7367267;19;19923;-65
2022/01/27 06:21:02;;;;;;;;;;;;;;;11.01;75.17;101964.28;7366842;19;20385;-66
2022/01/27 06:23:28;;;;;;;;;;;;;;;11.02;75.00;101976.47;7367843;19;19925;-66
2022/01/27 06:25:53;;;;;;;;;;;;;;;11.03;74.88;101978.19;7367386;19;20703;-66
2022/01/27 06:28:19;;;;;;;;;;;;;;;11.05;74.80;101981.69;7365453;19;19919;-65
2022/01/27 06:30:44;;;;;;;;;;;;;;;11.06;75.22;101987.78;7368273;19;19918;-65
2022/01/27 06:33:10;;;;;;;;;;;;;;;11.07;75.34;101992.13;7369943;19;19936;-65
2022/01/27 06:35:35;;;;;;;;;;;;;;;11.08;75.35;101992.13;7377917;19;20366;-64
2022/01/27 06:38:00;;;;;;;;;;;;;;;11.09;75.22;101993.84;7367936;19;19938;-65
2022/01/27 06:40:26;;;;;;;;;;;;;;;11.13;75.11;102006.03;7368577;19;19918;-65
2022/01/27 06:42:51;;;;;;;;;;;;;;;11.14;75.02;102007.78;7368611;19;19953;-65
2022/01/27 06:45:16;;;;;;;;;;;;;;;11.16;74.79;102013.88;7373399;19;20006;-66
2022/01/27 06:47:42;;;;;;;;;;;;;;;11.17;74.92;102017.34;7369731;19;19915;-64
2022/01/27 06:50:07;;;;;;;;;;;;;;;11.17;74.71;102013.00;7363100;19;19998;-65
2022/01/27 06:52:32;;;;;;;;;;;;;;;11.19;75.16;102020.81;7369594;19;19923;-65
2022/01/27 06:54:58;;;;;;;;;;;;;;;11.20;74.76;102022.56;7365536;19;19935;-65
2022/01/27 06:57:24;;;;;;;;;;;;;;;11.22;75.08;102030.41;7365940;19;19923;-65
2022/01/27 06:59:49;;;;;;;;;;;;;;;11.23;75.14;102033.00;7367695;19;20015;-66
2022/01/27 07:02:14;;;;;;;;;;;;;;;11.23;74.83;102033.00;7366874;19;20437;-65
2022/01/27 07:04:40;;;;;;;;;;;;;;;11.24;74.87;102039.13;7355745;19;19918;-66
2022/01/27 07:07:18;;;;;;;;;;;;;;;11.23;74.64;102038.25;5051115;19;10020648;-65
2022/01/27 07:09:43;;;;;;;;;;;;;;;11.24;75.01;102044.34;4011911;19;10002172;-65
2022/01/27 07:12:09;;;;;;;;;;;;;;;11.25;74.77;102048.69;7364062;19;19923;-65
2022/01/27 07:14:34;;;;;;;;;;;;;;;11.23;74.89;102053.94;7367583;19;20278;-66
2022/01/27 07:17:00;;;;;;;;;;;;;;;11.23;74.77;102053.06;7365553;19;20567;-65
2022/01/27 07:19:26;;;;;;;;;;;;;;;11.22;74.54;102060.03;7363957;19;19918;-65
2022/01/27 07:21:51;;;;;;;;;;;;;;;11.22;74.43;102077.47;7369953;19;19945;-65
2022/01/27 07:24:17;;;;;;;;;;;;;;;11.21;74.60;102075.75;7375133;19;19922;-66
2022/01/27 07:26:42;;;;;;;;;;;;;;;11.21;74.63;102092.31;7374940;19;19930;-66
2022/01/27 07:29:07;;;;;;;;;;;;;;;11.20;74.49;102094.91;7364440;19;19932;-66
2022/01/27 07:31:33;;;;;;;;;;;;;;;11.18;74.78;102098.41;7373335;19;20318;-66
2022/01/27 07:33:58;;;;;;;;;;;;;;;11.19;74.59;102109.72;7365849;19;19922;-66
2022/01/27 07:36:24;;;;;;;;;;;;;;;11.17;74.85;102116.72;7364031;19;20575;-66
2022/01/27 07:38:50;;;;;;;;;;;;;;;11.15;74.65;102123.66;7359590;19;20363;-65
2022/01/27 07:41:17;;;;;;;;;;;;;;;11.14;74.39;102128.03;7361541;19;19922;-65
2022/01/27 07:43:42;;;;;;;;;;;;;;;11.13;74.78;102131.53;7366035;19;19953;-65
2022/01/27 07:46:07;;;;;;;;;;;;;;;11.12;74.75;102135.03;7357870;19;19918;-66
2022/01/27 07:48:33;;;;;;;;;;;;;;;11.08;74.25;102133.28;7362859;19;19995;-65
2022/01/27 07:51:01;;;;;;;;;;;;;;;11.05;74.35;102143.75;7361702;19;19922;-65
2022/01/27 07:53:26;;;;;;;;;;;;;;;11.00;74.25;102155.97;7361322;19;19934;-65
2022/01/27 07:55:52;;;;;;;;;;;;;;;10.95;74.05;102168.16;7358482;19;19918;-66
2022/01/27 07:58:17;;;;;;;;;;;;;;;10.89;73.91;102178.59;7363557;19;20360;-66
2022/01/27 08:00:42;;;;;;;;;;;;;;;10.80;74.16;102174.28;7356782;19;20264;-66
2022/01/27 08:03:08;;;;;;;;;;;;;;;10.73;73.78;102182.97;7364466;19;19930;-66
2022/01/27 08:05:33;;;;;;;;;;;;;;;10.67;74.13;102182.09;7355934;19;20206;-66
2022/01/27 08:07:59;;;;;;;;;;;;;;;10.60;73.67;102189.06;7353631;19;19923;-66
2022/01/27 08:10:24;;;;;;;;;;;;;;;10.54;74.04;102195.16;7346977;19;19918;-66
2022/01/27 08:12:50;;;;;;;;;;;;;;;10.49;74.33;102202.13;7368229;19;19915;-66
2022/01/27 08:15:19;;;;;;;;;;;;;;;10.40;74.16;102189.03;7372334;19;19986;-66
2022/01/27 08:17:44;;;;;;;;;;;;;;;10.42;74.54;102202.94;7365769;19;19915;-67
2022/01/27 08:20:10;;;;;;;;;;;;;;;10.41;74.64;102209.06;7350515;19;19926;-66
2022/01/27 08:22:39;;;;;;;;;;;;;;;10.40;74.61;102215.16;7368467;19;20844;-66
2022/01/27 08:25:04;;;;;;;;;;;;;;;10.38;74.20;102216.88;7362912;19;19919;-66
2022/01/27 08:27:31;;;;;;;;;;;;;;;10.35;74.32;102216.88;7352953;19;20619;-66
2022/01/27 08:30:02;;;;;;;;;;;;;;;10.32;74.38;102222.09;7358608;19;19919;-66
2022/01/27 08:32:44;;;;;;;;;;;;;;;10.28;74.56;102223.81;7366098;19;19948;-66
2022/01/27 08:35:10;;;;;;;;;;;;;;;10.26;74.29;102227.28;7360365;19;19922;-66
2022/01/27 08:37:35;;;;;;;;;;;;;;;10.22;74.57;102226.38;7361073;19;19914;-66
2022/01/27 08:40:01;;;;;;;;;;;;;;;10.21;74.72;102234.22;7363182;19;19911;-67
2022/01/27 08:42:27;;;;;;;;;;;;;;;10.18;74.39;102237.66;7358178;19;19935;-66
2022/01/27 08:44:52;;;;;;;;;;;;;;;10.14;74.30;102244.63;7358389;19;19931;-66
2022/01/27 08:47:18;;;;;;;;;;;;;;;10.10;74.11;102242.88;7352332;19;19918;-66
2022/01/27 08:49:46;;;;;;;;;;;;;;;10.07;74.32;102237.63;7362809;19;19915;-66
2022/01/27 08:52:11;;;;;;;;;;;;;;;10.03;74.42;102245.44;7350831;19;20224;-66
2022/01/27 08:54:37;;;;;;;;;;;;;;;9.99;74.57;102247.19;7359842;19;19935;-66
2022/01/27 08:57:03;;;;;;;;;;;;;;;9.95;74.30;102237.59;7361041;19;19919;-66
2022/01/27 08:59:28;;;;;;;;;;;;;;;9.93;74.49;102243.66;7357879;19;19935;-67
2022/01/27 09:01:53;;;;;;;;;;;;;;;9.91;74.68;102254.09;7242669;19;19934;-67
2022/01/27 09:04:19;;;;;;;;;;;;;;;9.91;74.62;102261.91;1173087;19;10001949;-66
2022/01/27 09:06:44;;;;;;;;;;;;;;;9.92;74.80;102262.78;7370841;19;19923;-64
2022/01/27 09:09:09;;;;;;;;;;;;;;;9.94;75.06;102254.13;7367675;19;20432;-62
2022/01/27 09:11:35;;;;;;;;;;;;;;;9.97;75.03;102256.72;7352990;19;20589;-64
2022/01/27 09:14:01;;;;;;;;;;;;;;;9.98;74.95;102261.06;7365504;19;19915;-65
2022/01/27 09:16:27;;;;;;;;;;;;;;;10.00;74.63;102261.97;7339400;19;21654;-69
2022/01/27 09:18:53;;;;;;;;;;;;;;;10.02;74.72;102268.06;7360116;19;19918;-65
2022/01/27 09:21:23;;;;;;;;;;;;;;;10.05;74.69;102270.69;7357776;19;19929;-64
2022/01/27 09:23:49;;;;;;;;;;;;;;;10.10;74.76;102268.97;7356881;19;19929;-63
2022/01/27 09:26:39;;;;;;;;;;;;;;;10.17;75.04;102269.00;7355482;19;19926;-63
2022/01/27 09:29:00;;;;;;;;;;;;;;;10.31;75.32;102272.56;7365045;19;19931;-63
2022/01/27 09:31:25;;;;;;;;;;;;;;;10.45;75.64;102272.63;7365135;19;19928;-66
2022/01/27 09:33:50;;;;;;;;;;;;;;;10.62;75.73;102284.84;7368907;19;19942;-67
2022/01/27 09:36:15;;;;;;;;;;;;;;;10.85;75.54;102286.66;7362884;19;19927;-66
2022/01/27 09:38:41;;;;;;;;;;;;;;;11.10;75.91;102293.66;7369792;19;19931;-65
2022/01/27 09:41:07;;;;;;;;;;;;;;;11.33;75.31;102291.00;7370014;19;19911;-64
2022/01/27 09:43:34;;;;;;;;;;;;;;;11.48;74.89;102310.19;7355648;19;19960;-65
2022/01/27 09:45:59;;;;;;;;;;;;;;;11.53;74.50;102314.56;7373013;19;19928;-63
2022/01/27 09:48:32;;;;;;;;;;;;;;;11.58;74.16;102311.94;7368089;19;19911;-63
2022/01/27 09:51:22;;;;;;;;;;;;;;;11.66;74.52;102321.53;7373273;19;19919;-64
2022/01/27 09:53:49;;;;;;;;;;;;;;;11.84;75.03;102325.00;7371747;19;19922;-64
2022/01/27 09:56:15;;;;;;;;;;;;;;;12.03;74.86;102324.09;7358887;19;19927;-67
2022/01/27 09:58:40;;;;;;;;;;;;;;;12.25;74.63;102317.03;7372361;19;20406;-67
2022/01/27 10:01:05;;;;;;;;;;;;;;;12.50;74.60;102312.56;7361579;19;19975;-67
2022/01/27 10:03:31;;;;;;;;;;;;;;;12.68;74.28;102302.00;7365901;19;20345;-68
2022/01/27 10:06:13;;;;;;;;;;;;;;;12.89;74.33;102315.84;7348227;19;19927;-65
2022/01/27 10:08:42;;;;;;;;;;;;;;;13.09;74.09;102324.44;7354745;19;19911;-67
2022/01/27 10:11:15;;;;;;;;;;;;;;;13.28;74.06;102330.47;7358472;19;20022;-63
2022/01/27 10:13:43;;;;;;;;;;;;;;;13.51;74.24;102327.63;7368725;19;19925;-67
2022/01/27 10:16:08;;;;;;;;;;;;;;;13.77;74.19;102332.63;7355925;19;19956;-67
2022/01/27 10:18:39;;;;;;;;;;;;;;;13.94;73.50;102348.25;7370649;19;19918;-66
2022/01/27 10:21:05;;;;;;;;;;;;;;;13.99;72.87;102338.56;7368724;19;20271;-66
2022/01/27 10:23:33;;;;;;;;;;;;;;;13.95;72.57;102334.22;7364364;19;19918;-62
2022/01/27 10:26:13;;;;;;;;;;;;;;;13.86;71.81;102350.06;7369080;19;19922;-66
2022/01/27 10:31:24;;;;;;;;;;;;;;;13.53;72.04;102373.09;7370450;19;20417;-65
2022/01/27 10:33:52;;;;;;;;;;;;;;;13.38;71.70;102367.97;7363880;19;19919;-63
2022/01/27 10:36:36;;;;;;;;;;;;;;;13.24;72.05;102366.34;7371695;19;19918;-66
2022/01/27 10:39:04;;;;;;;;;;;;;;;13.11;72.27;102366.38;7359341;19;19953;-64
2022/01/27 10:41:31;;;;;;;;;;;;;;;13.00;72.49;102366.47;7367749;19;19994;-64
2022/01/27 10:44:15;;;;;;;;;;;;;;;12.92;72.76;102373.50;7370774;19;20826;-64
2022/01/27 10:47:08;;;;;;;;;;;;;;;12.84;72.81;102380.53;1581592;19;10022044;-65
2022/01/27 10:49:38;;;;;;;;;;;;;;;12.79;72.87;102382.31;7269528;19;2004294;-65
2022/01/27 10:52:05;;;;;;;;;;;;;;;12.71;72.94;102393.69;7368953;19;20660;-67
2022/01/27 10:57:01;;;;;;;;;;;;;;;12.64;72.52;102394.59;7367015;19;19923;-66
2022/01/27 10:59:27;;;;;;;;;;;;;;;12.61;72.54;102398.97;7367331;19;22365;-65
2022/01/27 11:01:52;;;;;;;;;;;;;;;12.59;72.65;102412.09;7369330;19;19923;-67
2022/01/27 11:04:19;;;;;;;;;;;;;;;12.57;72.79;102403.38;7364363;19;19930;-67
2022/01/27 11:06:58;;;;;;;;;;;;;;;12.60;72.83;102408.59;7367716;19;19946;-68
2022/01/27 11:09:24;;;;;;;;;;;;;;;12.63;72.85;102416.47;7360800;19;19914;-65
2022/01/27 11:11:50;;;;;;;;;;;;;;;12.69;73.34;102432.16;7363240;19;20339;-65
2022/01/27 11:14:15;;;;;;;;;;;;;;;12.75;72.86;102422.53;7357063;19;19933;-65
2022/01/27 11:16:43;;;;;;;;;;;;;;;12.79;72.93;102429.50;7351269;19;19922;-66
2022/01/27 11:24:32;;;;;;;;;;;;;;;13.46;73.89;102421.28;7362557;19;19923;-65
2022/01/27 11:27:00;;;;;;;;;;;;;;;13.87;73.95;102430.56;7363229;19;19926;-65
2022/01/27 11:29:26;;;;;;;;;;;;;;;14.31;73.92;102442.44;7368444;19;19944;-66
2022/01/27 11:32:04;;;;;;;;;;;;;;;14.74;73.73;102430.56;7370346;19;20618;-66
2022/01/27 11:34:44;;;;;;;;;;;;;;;15.19;72.94;102436.09;7363874;19;19919;-65
2022/01/27 11:37:10;;;;;;;;;;;;;;;15.60;72.46;102421.44;7373426;19;19931;-66
2022/01/27 11:39:47;;;;;;;;;;;;;;;15.96;72.17;102419.09;7362171;19;19915;-66
2022/01/27 11:42:13;;;;;;;;;;;;;;;16.33;72.01;102420.19;7359956;19;20627;-66
2022/01/27 11:44:39;;;;;;;;;;;;;;;16.62;71.27;102410.81;7360643;19;19911;-66
2022/01/27 11:47:07;;;;;;;;;;;;;;;16.93;71.11;102415.47;7369508;19;19919;-66
2022/01/27 11:49:54;;;;;;;;;;;;;;;17.23;71.06;102414.78;7359751;19;19918;-66
2022/01/27 11:52:23;;;;;;;;;;;;;;;17.53;70.04;102412.31;7361739;19;20406;-66
2022/01/27 11:54:49;;;;;;;;;;;;;;;17.81;70.19;102431.91;7365512;19;19923;-66
2022/01/27 11:57:33;;;;;;;;;;;;;;;18.07;69.54;102435.66;7364501;19;19929;-66
2022/01/27 12:00:15;;;;;;;;;;;;;;;18.35;69.06;102435.78;7366893;19;19907;-66
2022/01/27 12:02:59;;;;;;;;;;;;;;;18.57;68.52;102441.34;7369917;19;19918;-66
2022/01/27 12:05:25;;;;;;;;;;;;;;;18.81;68.44;102437.16;7365754;19;19918;-66
2022/01/27 12:08:09;;;;;;;;;;;;;;;18.99;67.82;102422.50;7363321;19;20544;-66
2022/01/27 12:10:46;;;;;;;;;;;;;;;19.17;67.40;102427.25;7365842;19;19917;-66
2022/01/27 12:13:25;;;;;;;;;;;;;;;19.31;67.19;102430.31;7360343;19;19927;-67
2022/01/27 12:16:09;;;;;;;;;;;;;;;19.43;66.51;102429.91;7375346;19;21019;-66
2022/01/27 12:18:37;;;;;;;;;;;;;;;19.55;66.29;102422.47;7369658;19;19906;-66
2022/01/27 12:21:21;;;;;;;;;;;;;;;19.63;65.96;102426.66;7373809;19;19959;-65
2022/01/27 12:24:05;;;;;;;;;;;;;;;19.70;65.78;102417.56;7361770;19;19911;-66
2022/01/27 12:26:46;;;;;;;;;;;;;;;19.78;65.64;102440.31;7368012;19;19925;-65
2022/01/27 12:29:11;;;;;;;;;;;;;;;19.88;65.54;102442.59;7364946;19;20340;-65
2022/01/27 12:31:39;;;;;;;;;;;;;;;20.02;65.87;102444.78;7371829;19;19919;-66
2022/01/27 12:34:05;;;;;;;;;;;;;;;20.16;65.70;102444.28;7366681;19;19922;-66
2022/01/27 12:36:30;;;;;;;;;;;;;;;20.30;65.37;102447.34;7367085;19;20571;-66
2022/01/27 12:38:56;;;;;;;;;;;;;;;20.42;65.45;102448.66;7362300;19;19930;-66
2022/01/27 12:41:21;;;;;;;;;;;;;;;20.53;65.34;102445.66;7363696;19;19926;-66
2022/01/27 12:43:49;;;;;;;;;;;;;;;20.63;64.82;102447.03;7361646;19;20563;-65
2022/01/27 12:46:15;;;;;;;;;;;;;;;20.64;64.49;102438.19;7359715;19;19915;-65
2022/01/27 12:48:46;;;;;;;;;;;;;;;20.85;64.50;102448.00;7364569;19;19914;-65
2022/01/27 12:51:11;;;;;;;;;;;;;;;20.93;64.57;102453.91;7362671;19;19925;-66
2022/01/27 12:53:37;;;;;;;;;;;;;;;21.03;63.69;102443.75;7361312;19;19911;-65
2022/01/27 12:56:15;;;;;;;;;;;;;;;21.07;63.30;102455.13;3483298;19;10001813;-66
2022/01/27 12:58:40;;;;;;;;;;;;;;;21.06;62.67;102456.06;5526161;19;10001324;-65
2022/01/27 13:01:06;;;;;;;;;;;;;;;21.09;63.29;102455.97;7365245;19;20044;-66
2022/01/27 13:03:31;;;;;;;;;;;;;;;21.14;62.82;102460.16;7354535;19;19914;-66
2022/01/27 13:05:59;;;;;;;;;;;;;;;21.21;63.02;102453.66;7362323;19;19914;-66
2022/01/27 13:08:29;;;;;;;;;;;;;;;21.31;62.98;102459.53;7362285;19;19919;-65
2022/01/27 13:10:57;;;;;;;;;;;;;;;21.40;63.02;102456.50;7369151;19;20340;-65
2022/01/27 13:13:26;;;;;;;;;;;;;;;21.45;62.70;102454.53;7370421;19;19952;-66
2022/01/27 13:15:57;;;;;;;;;;;;;;;21.45;61.55;102454.53;7357998;19;19922;-65
2022/01/27 13:18:42;;;;;;;;;;;;;;;21.43;61.51;102461.69;7362712;19;19919;-65
2022/01/27 13:21:29;;;;;;;;;;;;;;;21.45;61.98;102465.16;7353901;19;20336;-65